createdAt,value
2023-02-06T00:01:30.117Z,66.98
2023-02-06T00:05:31.918Z,66.76
2023-02-06T00:09:42.504Z,66.89
2023-02-06T00:14:19.304Z,66.63
2023-02-06T00:17:53.523Z,67.03
2023-02-06T00:21:57.544Z,66.87
2023-02-06T00:25:48.760Z,66.92
2023-02-06T00:29:51.491Z,66.90
2023-02-06T00:34:19.617Z,66.90
2023-02-06T00:38:19.779Z,66.67
2023-02-06T00:42:14.565Z,66.70
2023-02-06T00:45:48.086Z,66.76
2023-02-06T00:49:18.667Z,66.57
2023-02-06T00:52:59.331Z,66.68
2023-02-06T00:56:44.556Z,66.53
2023-02-06T01:01:10.911Z,66.26
2023-02-06T01:05:08.023Z,66.55
2023-02-06T01:09:05.721Z,66.74
2023-02-06T01:13:20.151Z,66.79
2023-02-06T01:24:33.681Z,66.67
2023-02-06T01:26:25.479Z,66.94
2023-02-06T01:30:50.382Z,67.27
2023-02-06T01:34:25.303Z,66.72
2023-02-06T01:38:29.481Z,66.96
2023-02-06T01:42:14.269Z,67.25
2023-02-06T01:46:20.290Z,67.40
2023-02-06T01:50:30.280Z,67.41
2023-02-06T01:54:25.219Z,67.06
2023-02-06T01:57:50.125Z,67.18
2023-02-06T02:01:42.699Z,67.06
2023-02-06T02:05:40.449Z,66.85
2023-02-06T02:09:36.086Z,67.17
2023-02-06T02:13:27.285Z,67.28
2023-02-06T02:17:13.833Z,67.15
2023-02-06T02:21:14.863Z,66.89
2023-02-06T02:25:21.752Z,67.09
2023-02-06T02:29:35.135Z,67.10
2023-02-06T02:33:30.095Z,67.33
2023-02-06T02:37:36.940Z,67.18
2023-02-06T02:41:43.455Z,67.05
2023-02-06T02:45:37.527Z,67.61
2023-02-06T02:49:42.625Z,67.64
2023-02-06T02:53:45.350Z,67.72
2023-02-06T02:57:24.596Z,67.56
2023-02-06T03:01:10.340Z,67.79
2023-02-06T03:05:23.364Z,67.67
2023-02-06T03:09:29.143Z,67.53
2023-02-06T03:13:23.014Z,67.08
2023-02-06T03:17:14.137Z,67.23
2023-02-06T03:21:07.860Z,67.04
2023-02-06T03:24:55.108Z,66.93
2023-02-06T03:28:41.702Z,66.78
2023-02-06T03:32:08.211Z,66.76
2023-02-06T03:36:18.279Z,67.11
2023-02-06T03:40:02.282Z,67.34
2023-02-06T03:44:06.197Z,66.88
2023-02-06T03:48:03.345Z,67.18
2023-02-06T03:51:59.133Z,67.07
2023-02-06T03:55:51.604Z,66.96
2023-02-06T04:00:04.923Z,66.53
2023-02-06T04:05:55.576Z,66.57
2023-02-06T04:09:04.395Z,66.37
2023-02-06T04:12:50.843Z,66.47
2023-02-06T04:16:55.831Z,65.93
2023-02-06T04:20:47.700Z,66.34
2023-02-06T04:24:41.740Z,66.59
2023-02-06T04:29:11.072Z,66.26
2023-02-06T04:33:16.482Z,65.78
2023-02-06T04:37:03.085Z,66.01
2023-02-06T04:41:01.768Z,66.55
2023-02-06T04:45:05.734Z,66.44
2023-02-06T04:48:58.465Z,66.93
2023-02-06T04:53:02.498Z,66.78
2023-02-06T04:57:22.802Z,66.37
2023-02-06T05:01:24.870Z,66.77
2023-02-06T05:05:18.840Z,66.54
2023-02-06T05:09:21.605Z,66.37
2023-02-06T05:12:58.060Z,66.19
2023-02-06T05:17:00.899Z,66.25
2023-02-06T05:21:03.637Z,66.00
2023-02-06T05:24:57.272Z,65.79
2023-02-06T05:29:01.232Z,65.28
2023-02-06T05:32:46.666Z,65.15
2023-02-06T05:36:50.744Z,65.22
2023-02-06T05:40:54.612Z,65.34
2023-02-06T05:44:38.330Z,65.24
2023-02-06T05:48:37.410Z,65.46
2023-02-06T05:52:41.480Z,65.51
2023-02-06T05:56:36.930Z,65.23
2023-02-06T06:00:31.511Z,65.45
2023-02-06T06:04:15.087Z,65.40
2023-02-06T06:08:19.051Z,65.51
2023-02-06T06:12:23.114Z,65.29
2023-02-06T06:16:10.294Z,65.39
2023-02-06T06:20:06.896Z,65.87
2023-02-06T06:23:42.351Z,66.06
2023-02-06T06:27:46.437Z,66.00
2023-02-06T06:31:32.830Z,66.03
2023-02-06T06:35:25.459Z,66.08
2023-02-06T06:39:19.153Z,65.76
2023-02-06T06:43:23.574Z,65.92
2023-02-06T06:47:27.522Z,66.36
2023-02-06T06:51:06.385Z,65.90
2023-02-06T06:54:53.108Z,65.94
2023-02-06T06:58:57.064Z,65.83
2023-02-06T07:02:50.641Z,65.81
2023-02-06T07:07:10.546Z,65.76
2023-02-06T07:11:04.525Z,65.85
2023-02-06T07:15:08.122Z,66.03
2023-02-06T07:19:11.713Z,65.80
2023-02-06T07:23:16.033Z,65.66
2023-02-06T07:27:18.574Z,66.12
2023-02-06T07:31:47.221Z,66.52
2023-02-06T07:35:40.583Z,66.70
2023-02-06T07:39:30.683Z,66.46
2023-02-06T07:43:22.487Z,66.50
2023-02-06T07:47:15.994Z,66.48
2023-02-06T07:51:21.654Z,66.13
2023-02-06T07:55:05.266Z,66.02
2023-02-06T07:59:16.935Z,66.67
2023-02-06T08:03:20.547Z,66.34
2023-02-06T08:07:32.448Z,66.25
2023-02-06T08:11:36.096Z,66.24
2023-02-06T08:15:46.024Z,66.32
2023-02-06T08:19:39.502Z,66.24
2023-02-06T08:23:48.243Z,66.61
2023-02-06T08:27:52.089Z,66.43
2023-02-06T08:31:58.192Z,66.53
2023-02-06T08:35:54.846Z,66.71
2023-02-06T08:39:58.558Z,66.82
2023-02-06T08:44:02.204Z,67.10
2023-02-06T08:47:55.637Z,66.91
2023-02-06T08:51:59.760Z,66.65
2023-02-06T08:55:43.943Z,66.75
2023-02-06T09:04:30.591Z,66.53
2023-02-06T09:08:13.218Z,66.81
2023-02-06T09:16:43.389Z,66.38
2023-02-06T09:20:53.075Z,66.83
2023-02-06T09:24:56.655Z,66.81
2023-02-06T09:28:42.941Z,66.65
2023-02-06T09:32:06.731Z,66.49
2023-02-06T09:35:30.274Z,66.67
2023-02-06T09:38:44.836Z,67.26
2023-02-06T09:42:48.443Z,67.33
2023-02-06T09:46:52.225Z,66.98
2023-02-06T09:50:30.842Z,66.97
2023-02-06T09:54:27.607Z,67.04
2023-02-06T09:58:24.822Z,66.71
2023-02-06T10:02:32.327Z,66.65
2023-02-06T10:06:21.775Z,66.73
2023-02-06T10:14:22.376Z,66.52
2023-02-06T10:18:11.803Z,66.58
2023-02-06T10:21:51.704Z,66.40
2023-02-06T10:25:51.809Z,66.07
2023-02-06T10:29:46.402Z,65.33
2023-02-06T10:38:32.140Z,65.61
2023-02-06T10:42:54.331Z,65.69
2023-02-06T10:47:24.359Z,65.45
2023-02-06T10:51:36.725Z,65.60
2023-02-06T11:00:32.571Z,64.88
2023-02-06T11:04:24.925Z,63.18
2023-02-06T11:13:29.472Z,61.83
2023-02-06T11:22:57.388Z,62.39
2023-02-06T11:27:13.146Z,62.60
2023-02-06T11:31:35.080Z,62.73
2023-02-06T11:35:42.968Z,62.76
2023-02-06T11:39:36.336Z,60.87
2023-02-06T11:48:28.459Z,60.55
2023-02-06T11:52:46.977Z,61.34
2023-02-06T11:57:03.324Z,60.56
2023-02-06T12:01:08.848Z,58.16
2023-02-06T12:05:12.625Z,58.22
2023-02-06T12:09:24.911Z,58.40
2023-02-06T12:13:19.628Z,58.38
2023-02-06T12:17:23.316Z,59.18
2023-02-06T12:21:31.996Z,60.24
2023-02-06T12:25:14.142Z,60.53
2023-02-06T12:29:23.816Z,58.49
2023-02-06T12:33:21.302Z,58.58
2023-02-06T12:37:24.991Z,58.97
2023-02-06T12:41:46.992Z,59.26
2023-02-06T12:46:05.380Z,56.47
2023-02-06T12:50:12.626Z,57.43
2023-02-06T12:54:02.366Z,56.81
2023-02-06T12:57:52.502Z,55.11
2023-02-06T13:01:49.711Z,56.15
2023-02-06T13:05:23.040Z,57.57
2023-02-06T13:09:16.451Z,56.35
2023-02-06T13:13:13.923Z,55.94
2023-02-06T13:17:13.080Z,54.78
2023-02-06T13:21:09.815Z,54.51
2023-02-06T13:25:06.544Z,55.18
2023-02-06T13:28:42.220Z,56.23
2023-02-06T13:32:29.346Z,56.64
2023-02-06T13:36:30.841Z,56.25
2023-02-06T13:40:32.831Z,56.12
2023-02-06T13:44:05.237Z,54.76
2023-02-06T13:48:05.680Z,56.72
2023-02-06T13:51:50.998Z,55.81
2023-02-06T13:55:56.875Z,54.71
2023-02-06T14:00:00.484Z,54.73
2023-02-06T14:04:10.332Z,55.11
2023-02-06T14:08:18.188Z,55.33
2023-02-06T14:12:52.436Z,56.86
2023-02-06T14:17:06.939Z,57.19
2023-02-06T14:21:01.783Z,57.59
2023-02-06T14:25:04.247Z,58.23
2023-02-06T14:29:25.349Z,58.69
2023-02-06T14:33:59.696Z,59.09
2023-02-06T14:42:56.233Z,59.39
2023-02-06T14:46:41.649Z,59.17
2023-02-06T14:50:45.534Z,59.11
2023-02-06T14:54:41.772Z,59.09
2023-02-06T14:58:36.805Z,59.17
2023-02-06T15:02:48.303Z,59.51
2023-02-06T15:07:10.594Z,59.60
2023-02-06T15:11:14.753Z,58.97
2023-02-06T15:15:22.369Z,59.08
2023-02-06T15:19:26.406Z,59.33
2023-02-06T15:23:56.312Z,59.86
2023-02-06T15:28:09.244Z,58.47
2023-02-06T15:32:18.922Z,58.71
2023-02-06T15:36:21.173Z,59.54
2023-02-06T15:40:04.656Z,59.08
2023-02-06T15:44:10.203Z,58.93
2023-02-06T15:48:03.663Z,59.37
2023-02-06T15:52:19.264Z,59.60
2023-02-06T15:56:21.802Z,60.09
2023-02-06T16:00:25.440Z,59.65
2023-02-06T16:04:31.083Z,60.01
2023-02-06T16:08:28.159Z,60.41
2023-02-06T16:12:27.851Z,60.28
2023-02-06T16:16:49.532Z,60.81
2023-02-06T16:21:12.007Z,60.06
2023-02-06T16:29:49.602Z,60.96
2023-02-06T16:33:51.747Z,61.03
2023-02-06T16:37:45.459Z,61.17
2023-02-06T16:41:17.867Z,61.21
2023-02-06T16:45:13.220Z,61.45
2023-02-06T16:49:17.965Z,61.35
2023-02-06T16:53:26.619Z,61.59
2023-02-06T16:57:30.216Z,61.72
2023-02-06T17:01:23.804Z,61.52
2023-02-06T17:05:10.191Z,61.72
2023-02-06T17:09:14.013Z,61.86
2023-02-06T17:13:18.182Z,61.83
2023-02-06T17:17:30.543Z,61.78
2023-02-06T17:21:28.450Z,62.09
2023-02-06T17:25:20.932Z,62.21
2023-02-06T17:29:24.584Z,62.33
2023-02-06T17:33:28.443Z,62.16
2023-02-06T17:37:33.280Z,62.49
2023-02-06T17:41:30.571Z,62.57
2023-02-06T17:45:34.727Z,62.53
2023-02-06T17:49:19.018Z,62.75
2023-02-06T17:53:21.461Z,62.59
2023-02-06T17:57:15.011Z,62.91
2023-02-06T18:01:24.660Z,62.84
2023-02-06T18:04:38.897Z,62.89
2023-02-06T18:08:42.681Z,62.92
2023-02-06T18:12:36.069Z,62.92
2023-02-06T18:16:27.549Z,62.88
2023-02-06T18:20:21.061Z,62.90
2023-02-06T18:23:52.338Z,63.04
2023-02-06T18:27:55.915Z,63.01
2023-02-06T18:31:57.212Z,63.30
2023-02-06T18:35:50.713Z,63.07
2023-02-06T18:39:44.711Z,63.11
2023-02-06T18:43:28.275Z,63.18
2023-02-06T18:47:22.922Z,63.28
2023-02-06T18:51:08.591Z,63.42
2023-02-06T18:54:55.601Z,63.41
2023-02-06T18:58:59.532Z,63.52
2023-02-06T19:02:53.311Z,63.26
2023-02-06T19:06:59.661Z,63.44
2023-02-06T19:10:48.257Z,63.75
2023-02-06T19:14:22.611Z,63.38
2023-02-06T19:18:06.217Z,63.59
2023-02-06T19:22:09.842Z,63.35
2023-02-06T19:26:04.110Z,63.58
2023-02-06T19:30:07.737Z,63.73
2023-02-06T19:34:10.299Z,63.66
2023-02-06T19:38:03.936Z,63.99
2023-02-06T19:42:13.901Z,63.52
2023-02-06T19:46:18.816Z,63.84
2023-02-06T19:50:00.845Z,63.55
2023-02-06T19:53:55.680Z,63.70
2023-02-06T19:57:39.538Z,63.62
2023-02-06T20:01:43.427Z,63.48
2023-02-06T20:05:29.797Z,63.84
2023-02-06T20:09:33.427Z,63.87
2023-02-06T20:13:22.155Z,63.72
2023-02-06T20:17:21.788Z,63.69
2023-02-06T20:20:53.209Z,63.92
2023-02-06T20:24:20.834Z,63.83
2023-02-06T20:28:24.800Z,63.49
2023-02-06T20:32:19.490Z,63.78
2023-02-06T20:35:32.726Z,64.04
2023-02-06T20:39:32.105Z,64.07
2023-02-06T20:43:37.789Z,64.02
2023-02-06T20:47:31.553Z,64.05
2023-02-06T20:51:41.299Z,63.85
2023-02-06T20:55:25.945Z,63.93
2023-02-06T20:59:12.186Z,64.22
2023-02-06T21:03:15.893Z,64.36
2023-02-06T21:07:19.458Z,64.26
2023-02-06T21:11:24.830Z,64.19
2023-02-06T21:15:28.435Z,64.08
2023-02-06T21:19:16.962Z,64.13
2023-02-06T21:23:00.392Z,64.39
2023-02-06T21:27:03.967Z,64.50
2023-02-06T21:30:57.479Z,64.21
2023-02-06T21:35:01.121Z,64.34
2023-02-06T21:38:50.015Z,64.21
2023-02-06T21:42:46.616Z,64.32
2023-02-06T21:46:29.131Z,64.60
2023-02-06T21:50:05.698Z,64.30
2023-02-06T21:53:11.777Z,64.38
2023-02-06T21:56:42.620Z,64.23
2023-02-06T22:00:17.154Z,64.44
2023-02-06T22:03:26.070Z,64.44
2023-02-06T22:07:09.407Z,64.30
2023-02-06T22:10:18.620Z,64.16
2023-02-06T22:13:56.590Z,64.61
2023-02-06T22:17:33.146Z,64.64
2023-02-06T22:20:49.102Z,64.16
2023-02-06T22:24:32.681Z,64.58
2023-02-06T22:28:09.708Z,64.55
2023-02-06T22:31:38.972Z,64.45
2023-02-06T22:35:06.021Z,64.72
2023-02-06T22:39:09.624Z,64.53
2023-02-06T22:42:57.104Z,64.64
2023-02-06T22:46:30.607Z,64.86
2023-02-06T22:50:05.675Z,64.92
2023-02-06T22:53:50.310Z,65.22
2023-02-06T22:57:13.825Z,65.02
2023-02-06T23:01:18.535Z,64.83
2023-02-06T23:04:44.793Z,64.58
2023-02-06T23:08:48.332Z,64.39
2023-02-06T23:12:16.395Z,64.54
2023-02-06T23:15:59.748Z,64.04
2023-02-06T23:19:53.179Z,64.47
2023-02-06T23:23:38.242Z,64.54
2023-02-06T23:27:11.987Z,64.47
2023-02-06T23:31:06.519Z,64.60
2023-02-06T23:34:35.560Z,64.46
2023-02-06T23:38:38.275Z,64.20
2023-02-06T23:42:40.334Z,64.37
2023-02-06T23:46:23.832Z,64.11
2023-02-06T23:50:18.341Z,63.91
2023-02-06T23:53:51.588Z,64.04
2023-02-06T23:57:47.805Z,64.21
